Details From KBID - Block Island State
To KCEF - WESTOVER ARB METROPOLITAN
Flight Number -
Tags generated
Created
Modified
Stats Distance 75 nm / 139 km
Max Altitude 6,000 ft / 1,829 m
Waypoints 3
Social Downloads 0
Likes 0
Share VATSIM

Download

Looking for another format? Having issues loading an existing format? Contact us
Advertisement - Login to hide

Notes

Basic altitude profile: - Ascent Rate: 2500ft/min - Ascent Speed: 250kts - Cruise Altitude: 35000ft - Cruise Speed: 420kts - Descent Rate: 1500ft/min - Descent Speed: 250kts

Route

KBID ASHWY KCEF

ID Type Via Altitude Latitude Longitude Leg Dist Tot Dist Heading (true) Name
O KBID APT - 0 ft / 0 m 41.16814˚ -71.57761˚ - 0 nm - Block Island State
ASHWY FIX - 6,000 ft / 1,829 m 41.40537˚ -71.78451˚ 17 nm 17 nm 327° / 327° -
O KCEF APT - 0 ft / 0 m 42.19509˚ -72.53440˚ 58 nm 75 nm 325° / 324° WESTOVER ARB METROPOLITAN

Altitude Profile

Advertisement - Login to hide

KBID

Details ICAO KBID (BID)
Name Block Island State
Region United States
Timezone America/New_York (UTC-4.0)
Stats Elevation 108 ft / 33 m (AMSL)
Location 41.168139° -71.577612°
Runways 1
Magnetic Variation 14.114° W

METAR

KBID 231756Z AUTO 25012KT 10SM CLR 19/15 A2991 RMK AO2 SLP131 6//// T01940150 10194 20128 58004

Decode

TAF

Not found

Departure Runways

ID Width Length Bearing (true) Bearing (mag) Surface Threshold Offset Overrun Length
10 98 ft / 30 m 2,504 ft / 763 m 83.74° 97.85° Asphalt 0 ft / 0 m 0 ft / 0 m
28 98 ft / 30 m 2,504 ft / 763 m 263.75° 277.86° Asphalt 0 ft / 0 m 0 ft / 0 m

KCEF

Details ICAO KCEF (CEF)
Name WESTOVER ARB METROPOLITAN
Region United States
Timezone America/New_York (UTC-4.0)
Stats Elevation 241 ft / 73 m (AMSL)
Location 42.195092° -72.534404°
Runways 2
Magnetic Variation 13.949° W

METAR

KCEF 231842Z 33010KT 10SM SCT035 SCT250 28/09 A2986 RMK AO2A WSHFT 40 SLP117

Decode

TAF

TAF KCEF 231800Z 2318/2424 30012KT 9999 FEW250 QNH2987INS WND 20006KT AFT 2423 TEMPO 2318/2322 30015G25KT TEMPO 2413/2422 33015G20KT TX28/2320Z TN16/2409Z

Decode

Destination Runways

ID Width Length Bearing (true) Bearing (mag) Surface Threshold Offset Overrun Length
05 164 ft / 50 m 11,598 ft / 3,535 m 34.09° 48.04° Asphalt 1,201 ft / 366 m 1,001 ft / 305 m
15 150 ft / 46 m 7,094 ft / 2,162 m 135.09° 149.04° Asphalt 0 ft / 0 m 0 ft / 0 m
23 164 ft / 50 m 11,598 ft / 3,535 m 214.11° 228.06° Asphalt 0 ft / 0 m 1,001 ft / 305 m
33 150 ft / 46 m 7,094 ft / 2,162 m 315.10° 329.05° Asphalt 0 ft / 0 m 0 ft / 0 m

Approach Navaids

Runway Type Ident Frequency Range Bearing (true) Bearing (mag) Slope Elevation
05 Localiser IGWJ 109.90 MHz 18 nm / 33 km 34.07° 48.02° - 241 ft / 73 m (AMSL)
05 Glidescope IGWJ 109.90 MHz 10 nm / 19 km 34.10° 48.05° 3.00° 245 ft / 75 m (AMSL)
23 Localiser ICEF 109.90 MHz 18 nm / 33 km 214.06° 228.01° - 241 ft / 73 m (AMSL)
23 Glidescope ICEF 109.90 MHz 10 nm / 19 km 214.10° 228.05° 3.00° 241 ft / 73 m (AMSL)